Hamden, Connecticut
Current Conditions -  °F | °C
As of 5:53 AM on Friday 19 Dec 2014 (Local Time) from KMMK Reporting Station
Overcast Overcast  
Wind Chill: 29°   Ceiling: 3300
Heat Index: 35°   Visibility: 10mi
Dew Point: 22°   Wind: 8mph
Humidity: 59%   Direction: 320°NW
Pressure: 29.96"   Gusts: NA
Location:  41.4°N, 72.9°W
Report Text: KMMK 191053Z AUTO 32007KT 10SM OVC033 02/M06 A2996 RMK AO2 SLP147 T00171056 TSNO $
Loading
Personal Weather Stations






























Interactive Weather Map New forecast layout! Learn more

10-Day Weather Forecast

Advertisements
Track Severe Weather on mobile